CheckWX is a tool to help pilots better visualize weather data.  It is not intended as a substitute for an official pre-flight weather briefing.

04:19:26 UTC

KMNN METAR
Marion Municipal Airport
Marion, Ohio, USA
Current

26 mins ago

KMNN 270353Z AUTO 00000KT 10SM CLR 25/17 A3014 RMK AO2 SLP199 T02500167
Observed
Jun-27 @ 03:53 UTC
Visibility
10 SM
Flight Rules
VFR
Cloud Levels
  • Clear skies
Temperature
25°C / 77°F
Dewpoint
17°C / 63°F
Humidity
61%
Altimeter
30.14" Hg
Pressure
1020.62 hPa
Previous

1 hour ago

KMNN 270253Z AUTO 23004KT 10SM CLR 25/16 A3014 RMK AO2 SLP198 T02500161 53015
Observed
Jun-27 @ 02:53 UTC
Wind
  • 230° at 4 KTS
Visibility
10 SM
Flight Rules
VFR
Cloud Levels
  • Clear skies
Temperature
25°C / 77°F
Dewpoint
16°C / 61°F
Humidity
57%
Altimeter
30.14" Hg
Pressure
1020.62 hPa
Previous

2 hours ago

KMNN 270153Z AUTO 23003KT 8SM CLR 26/17 A3012 RMK AO2 SLP193 T02560167
Observed
Jun-27 @ 01:53 UTC
Wind
  • 230° at 3 KTS
Visibility
8 SM
Flight Rules
VFR
Cloud Levels
  • Clear skies
Temperature
26°C / 79°F
Dewpoint
17°C / 63°F
Humidity
58%
Altimeter
30.12" Hg
Pressure
1020.02 hPa